This is the latest recevied weather packets stored in our database for station/object AD0YN. If no packets are shown the sender has not sent any weather packets the latest 10 day(s).
| Time | Temp. | Humidity | Pressure | Rain* | Wind** | Luminosity | Snow |
|---|---|---|---|---|---|---|---|
| 1777497109 | 16.67° C | 42% | 1017.6 hPa | 0 mm | - | 504 W/m² | - |
| 1777496806 | 16.67° C | 44% | 1017.7 hPa | 0 mm | - | 616 W/m² | - |
| 1777496503 | 16.67° C | 44% | 1017.8 hPa | 0 mm | - | 589 W/m² | - |
| 1777496199 | 16.67° C | 47% | 1017.5 hPa | 0 mm | - | 646 W/m² | - |
| 1777495896 | 16.67° C | 41% | 1018.1 hPa | 0 mm | - | 518 W/m² | - |
| 1777495592 | 16.67° C | 47% | 1018.2 hPa | 0 mm | - | 646 W/m² | - |
| 1777495287 | 16.67° C | 42% | 1018.3 hPa | 0 mm | - | 620 W/m² | - |
| 1777494986 | 16.67° C | 42% | 1018.3 hPa | 0 mm | - | 627 W/m² | - |
| 1777494682 | 16.67° C | 42% | 1018.4 hPa | 0 mm | - | 679 W/m² | - |
| 1777494380 | 16.67° C | 46% | 1018.3 hPa | 0 mm | - | 765 W/m² | - |
| 1777494076 | 16.67° C | 45% | 1018.4 hPa | 0 mm | - | 676 W/m² | - |
| 1777493774 | 16.67° C | 42% | 1018.5 hPa | 0 mm | - | 745 W/m² | - |
| 1777493472 | 16.11° C | 48% | 1018.5 hPa | 0 mm | - | 809 W/m² | - |
| 1777493168 | 16.11° C | 45% | 1018.5 hPa | 0 mm | - | 342 W/m² | - |
| 1777492864 | 16.11° C | 48% | 1018.5 hPa | 0 mm | - | 822 W/m² | - |
| 1777492561 | 16.11° C | 46% | 1018.7 hPa | 0 mm | - | 699 W/m² | - |
| 1777492256 | 16.67° C | 44% | 1018.9 hPa | 0 mm | - | 773 W/m² | - |
| 1777491954 | 16.67° C | 46% | 1018.9 hPa | 0 mm | - | 937 W/m² | - |
| 1777491650 | 16.11° C | 48% | 1018.8 hPa | 0 mm | - | 945 W/m² | - |
| 1777491348 | 15.56° C | 52% | 1018.7 hPa | 0 mm | - | 948 W/m² | - |
| 1777491045 | 16.67° C | 48% | 1018.7 hPa | 0 mm | - | 181 W/m² | - |
| 1777490740 | 16.11° C | 51% | 1018.8 hPa | 0 mm | - | 992 W/m² | - |
| 1777490437 | 16.11° C | 51% | 1018.7 hPa | 0 mm | - | 229 W/m² | - |
| 1777490133 | 16.11° C | 51% | 1018.8 hPa | 0 mm | - | 998 W/m² | - |
| 1777489831 | 16.67° C | 45% | 1018.8 hPa | 0 mm | - | 246 W/m² | - |
* Rain latest hour (hover to see other rain measurements)
** Current wind speed in m/s (hover to see current wind gust speed)